sensor_id;sensor_type;location;lat;lon;timestamp;temperature;humidity
42743;DHT22;28397;44.552;-0.848;2023-04-01T00:00:16;13.00;99.90
42743;DHT22;28397;44.552;-0.848;2023-04-01T00:02:42;12.90;99.90
42743;DHT22;28397;44.552;-0.848;2023-04-01T00:05:08;12.90;99.90
42743;DHT22;28397;44.552;-0.848;2023-04-01T00:07:39;12.90;99.90
42743;DHT22;28397;44.552;-0.848;2023-04-01T00:10:10;12.90;99.90
42743;DHT22;28397;44.552;-0.848;2023-04-01T00:12:37;13.00;99.90
42743;DHT22;28397;44.552;-0.848;2023-04-01T00:15:09;13.00;99.90
42743;DHT22;28397;44.552;-0.848;2023-04-01T00:17:35;13.00;99.90
42743;DHT22;28397;44.552;-0.848;2023-04-01T00:20:01;13.00;99.90
42743;DHT22;28397;44.552;-0.848;2023-04-01T00:22:28;13.00;99.90
42743;DHT22;28397;44.552;-0.848;2023-04-01T00:24:54;13.00;99.90
42743;DHT22;28397;44.552;-0.848;2023-04-01T00:27:20;13.00;99.90
42743;DHT22;28397;44.552;-0.848;2023-04-01T00:29:46;13.00;99.90
42743;DHT22;28397;44.552;-0.848;2023-04-01T00:32:13;12.90;99.90
42743;DHT22;28397;44.552;-0.848;2023-04-01T00:34:40;13.00;99.90
42743;DHT22;28397;44.552;-0.848;2023-04-01T00:37:07;12.90;99.90
42743;DHT22;28397;44.552;-0.848;2023-04-01T00:39:34;12.90;99.90
42743;DHT22;28397;44.552;-0.848;2023-04-01T00:42:02;12.80;99.90
42743;DHT22;28397;44.552;-0.848;2023-04-01T00:44:33;12.80;99.90
42743;DHT22;28397;44.552;-0.848;2023-04-01T00:47:00;12.80;99.90
42743;DHT22;28397;44.552;-0.848;2023-04-01T00:49:39;12.80;99.90
42743;DHT22;28397;44.552;-0.848;2023-04-01T00:52:07;12.80;99.90
42743;DHT22;28397;44.552;-0.848;2023-04-01T00:54:34;12.80;99.90
42743;DHT22;28397;44.552;-0.848;2023-04-01T00:59:37;12.70;99.90
42743;DHT22;28397;44.552;-0.848;2023-04-01T01:02:07;12.80;99.90
42743;DHT22;28397;44.552;-0.848;2023-04-01T01:04:35;12.70;99.90
42743;DHT22;28397;44.552;-0.848;2023-04-01T01:09:38;12.70;99.90
42743;DHT22;28397;44.552;-0.848;2023-04-01T01:28:15;12.60;99.90
42743;DHT22;28397;44.552;-0.848;2023-04-01T01:31:00;12.60;99.90
42743;DHT22;28397;44.552;-0.848;2023-04-01T01:35:59;12.60;99.90
42743;DHT22;28397;44.552;-0.848;2023-04-01T01:38:30;12.60;99.90
42743;DHT22;28397;44.552;-0.848;2023-04-01T01:40:57;12.50;99.90
42743;DHT22;28397;44.552;-0.848;2023-04-01T01:43:33;12.50;99.90
42743;DHT22;28397;44.552;-0.848;2023-04-01T01:46:05;12.60;99.90
42743;DHT22;28397;44.552;-0.848;2023-04-01T01:48:32;12.60;99.90
42743;DHT22;28397;44.552;-0.848;2023-04-01T01:50:59;12.60;99.90
42743;DHT22;28397;44.552;-0.848;2023-04-01T01:53:25;12.70;99.90
42743;DHT22;28397;44.552;-0.848;2023-04-01T01:55:51;12.70;99.90
42743;DHT22;28397;44.552;-0.848;2023-04-01T01:58:36;12.70;99.90
42743;DHT22;28397;44.552;-0.848;2023-04-01T02:01:08;12.70;99.90
42743;DHT22;28397;44.552;-0.848;2023-04-01T02:03:36;12.70;99.90
42743;DHT22;28397;44.552;-0.848;2023-04-01T02:06:05;12.70;99.90
42743;DHT22;28397;44.552;-0.848;2023-04-01T02:11:16;12.80;99.90
42743;DHT22;28397;44.552;-0.848;2023-04-01T02:13:52;12.70;99.90
42743;DHT22;28397;44.552;-0.848;2023-04-01T02:16:49;12.60;99.90
42743;DHT22;28397;44.552;-0.848;2023-04-01T02:19:17;12.60;99.90
42743;DHT22;28397;44.552;-0.848;2023-04-01T02:21:53;12.60;99.90
42743;DHT22;28397;44.552;-0.848;2023-04-01T02:24:20;12.60;99.90
42743;DHT22;28397;44.552;-0.848;2023-04-01T02:26:50;12.50;99.90
42743;DHT22;28397;44.552;-0.848;2023-04-01T02:29:19;12.50;99.90
42743;DHT22;28397;44.552;-0.848;2023-04-01T02:31:45;12.50;99.90
42743;DHT22;28397;44.552;-0.848;2023-04-01T02:34:11;12.50;99.90
42743;DHT22;28397;44.552;-0.848;2023-04-01T02:36:38;12.50;99.90
42743;DHT22;28397;44.552;-0.848;2023-04-01T02:39:05;12.50;99.90
42743;DHT22;28397;44.552;-0.848;2023-04-01T02:41:31;12.50;99.90
42743;DHT22;28397;44.552;-0.848;2023-04-01T02:43:57;12.50;99.90
42743;DHT22;28397;44.552;-0.848;2023-04-01T02:46:24;12.50;99.90
42743;DHT22;28397;44.552;-0.848;2023-04-01T02:48:50;12.50;99.90
42743;DHT22;28397;44.552;-0.848;2023-04-01T02:51:15;12.40;99.90
42743;DHT22;28397;44.552;-0.848;2023-04-01T02:53:41;12.50;99.90
42743;DHT22;28397;44.552;-0.848;2023-04-01T02:56:07;12.50;99.90
42743;DHT22;28397;44.552;-0.848;2023-04-01T02:58:32;12.50;99.90
42743;DHT22;28397;44.552;-0.848;2023-04-01T03:00:58;12.50;99.90
42743;DHT22;28397;44.552;-0.848;2023-04-01T03:03:25;12.40;99.90
42743;DHT22;28397;44.552;-0.848;2023-04-01T03:05:50;12.40;99.90
42743;DHT22;28397;44.552;-0.848;2023-04-01T03:08:16;12.40;99.90
42743;DHT22;28397;44.552;-0.848;2023-04-01T03:10:42;12.50;99.90
42743;DHT22;28397;44.552;-0.848;2023-04-01T03:13:08;12.50;99.90
42743;DHT22;28397;44.552;-0.848;2023-04-01T03:15:33;12.40;99.90
42743;DHT22;28397;44.552;-0.848;2023-04-01T03:17:59;12.40;99.90
42743;DHT22;28397;44.552;-0.848;2023-04-01T03:20:25;12.50;99.90
42743;DHT22;28397;44.552;-0.848;2023-04-01T03:22:50;12.50;99.90
42743;DHT22;28397;44.552;-0.848;2023-04-01T03:25:17;12.60;99.90
42743;DHT22;28397;44.552;-0.848;2023-04-01T03:27:43;12.60;99.90
42743;DHT22;28397;44.552;-0.848;2023-04-01T03:30:09;12.40;99.90
42743;DHT22;28397;44.552;-0.848;2023-04-01T03:32:35;12.10;99.90
42743;DHT22;28397;44.552;-0.848;2023-04-01T03:35:00;12.00;99.90
42743;DHT22;28397;44.552;-0.848;2023-04-01T03:37:26;12.10;99.90
42743;DHT22;28397;44.552;-0.848;2023-04-01T03:39:52;12.00;99.90
42743;DHT22;28397;44.552;-0.848;2023-04-01T03:42:18;12.00;99.90
42743;DHT22;28397;44.552;-0.848;2023-04-01T03:44:44;12.10;99.90
42743;DHT22;28397;44.552;-0.848;2023-04-01T03:47:10;12.10;99.90
42743;DHT22;28397;44.552;-0.848;2023-04-01T03:49:35;12.10;99.90
42743;DHT22;28397;44.552;-0.848;2023-04-01T03:52:01;12.20;99.90
42743;DHT22;28397;44.552;-0.848;2023-04-01T03:54:27;12.20;99.90
42743;DHT22;28397;44.552;-0.848;2023-04-01T03:56:52;12.20;99.90
42743;DHT22;28397;44.552;-0.848;2023-04-01T03:59:19;12.20;99.90
42743;DHT22;28397;44.552;-0.848;2023-04-01T04:01:46;12.20;99.90
42743;DHT22;28397;44.552;-0.848;2023-04-01T04:04:13;12.20;99.90
42743;DHT22;28397;44.552;-0.848;2023-04-01T04:06:39;12.20;99.90
42743;DHT22;28397;44.552;-0.848;2023-04-01T04:09:04;12.20;99.90
42743;DHT22;28397;44.552;-0.848;2023-04-01T04:11:31;12.20;99.90
42743;DHT22;28397;44.552;-0.848;2023-04-01T04:13:58;12.20;99.90
42743;DHT22;28397;44.552;-0.848;2023-04-01T04:16:24;12.20;99.90
42743;DHT22;28397;44.552;-0.848;2023-04-01T04:18:49;12.20;99.90
42743;DHT22;28397;44.552;-0.848;2023-04-01T04:21:16;12.30;99.90
42743;DHT22;28397;44.552;-0.848;2023-04-01T04:23:42;12.30;99.90
42743;DHT22;28397;44.552;-0.848;2023-04-01T04:26:11;12.40;99.90
42743;DHT22;28397;44.552;-0.848;2023-04-01T04:28:37;12.30;99.90
42743;DHT22;28397;44.552;-0.848;2023-04-01T04:31:04;12.30;99.90
42743;DHT22;28397;44.552;-0.848;2023-04-01T04:33:31;12.30;99.90
42743;DHT22;28397;44.552;-0.848;2023-04-01T04:35:58;12.20;99.90
42743;DHT22;28397;44.552;-0.848;2023-04-01T04:38:25;12.20;99.90
42743;DHT22;28397;44.552;-0.848;2023-04-01T04:40:51;12.10;99.90
42743;DHT22;28397;44.552;-0.848;2023-04-01T04:43:18;12.10;99.90
42743;DHT22;28397;44.552;-0.848;2023-04-01T04:45:44;12.10;99.90
42743;DHT22;28397;44.552;-0.848;2023-04-01T04:48:11;12.00;99.90
42743;DHT22;28397;44.552;-0.848;2023-04-01T04:50:44;12.10;99.90
42743;DHT22;28397;44.552;-0.848;2023-04-01T04:53:11;12.10;99.90
42743;DHT22;28397;44.552;-0.848;2023-04-01T04:55:38;12.10;99.90
42743;DHT22;28397;44.552;-0.848;2023-04-01T04:58:07;12.10;99.90
42743;DHT22;28397;44.552;-0.848;2023-04-01T05:00:33;12.10;99.90
42743;DHT22;28397;44.552;-0.848;2023-04-01T05:02:58;12.10;99.90
42743;DHT22;28397;44.552;-0.848;2023-04-01T05:05:24;12.00;99.90
42743;DHT22;28397;44.552;-0.848;2023-04-01T05:07:50;11.80;99.90
42743;DHT22;28397;44.552;-0.848;2023-04-01T05:10:16;11.70;99.90
42743;DHT22;28397;44.552;-0.848;2023-04-01T05:12:41;11.70;99.90
42743;DHT22;28397;44.552;-0.848;2023-04-01T05:15:08;11.70;99.90
42743;DHT22;28397;44.552;-0.848;2023-04-01T05:17:34;11.70;99.90
42743;DHT22;28397;44.552;-0.848;2023-04-01T05:20:00;11.60;99.90
42743;DHT22;28397;44.552;-0.848;2023-04-01T05:22:26;11.70;99.90
42743;DHT22;28397;44.552;-0.848;2023-04-01T05:24:52;11.80;99.90
42743;DHT22;28397;44.552;-0.848;2023-04-01T05:27:18;11.80;99.90
42743;DHT22;28397;44.552;-0.848;2023-04-01T05:29:43;11.80;99.90
42743;DHT22;28397;44.552;-0.848;2023-04-01T05:32:09;11.90;99.90
42743;DHT22;28397;44.552;-0.848;2023-04-01T05:34:35;12.00;99.90
42743;DHT22;28397;44.552;-0.848;2023-04-01T05:37:01;12.00;99.90
42743;DHT22;28397;44.552;-0.848;2023-04-01T05:39:26;12.00;99.90
42743;DHT22;28397;44.552;-0.848;2023-04-01T05:41:52;12.00;99.90
42743;DHT22;28397;44.552;-0.848;2023-04-01T05:44:18;12.00;99.90
42743;DHT22;28397;44.552;-0.848;2023-04-01T05:46:43;12.10;99.90
42743;DHT22;28397;44.552;-0.848;2023-04-01T05:49:09;12.10;99.90
42743;DHT22;28397;44.552;-0.848;2023-04-01T05:51:35;12.10;99.90
42743;DHT22;28397;44.552;-0.848;2023-04-01T05:54:00;12.10;99.90
42743;DHT22;28397;44.552;-0.848;2023-04-01T05:56:26;12.10;99.90
42743;DHT22;28397;44.552;-0.848;2023-04-01T05:58:53;12.20;99.90
42743;DHT22;28397;44.552;-0.848;2023-04-01T06:01:19;12.10;99.90
42743;DHT22;28397;44.552;-0.848;2023-04-01T06:03:45;12.20;99.90
42743;DHT22;28397;44.552;-0.848;2023-04-01T06:06:17;12.20;99.90
42743;DHT22;28397;44.552;-0.848;2023-04-01T06:08:44;12.20;99.90
42743;DHT22;28397;44.552;-0.848;2023-04-01T06:14:36;12.20;99.90
42743;DHT22;28397;44.552;-0.848;2023-04-01T06:37:44;12.30;99.90
42743;DHT22;28397;44.552;-0.848;2023-04-01T06:45:28;12.40;99.90
42743;DHT22;28397;44.552;-0.848;2023-04-01T06:53:10;12.40;99.90
42743;DHT22;28397;44.552;-0.848;2023-04-01T06:56:10;12.50;99.90
42743;DHT22;28397;44.552;-0.848;2023-04-01T07:01:12;12.50;99.90
42743;DHT22;28397;44.552;-0.848;2023-04-01T07:03:57;12.50;99.90
42743;DHT22;28397;44.552;-0.848;2023-04-01T07:06:37;12.60;99.90
42743;DHT22;28397;44.552;-0.848;2023-04-01T07:09:16;12.60;99.90
42743;DHT22;28397;44.552;-0.848;2023-04-01T07:11:43;12.60;99.90
42743;DHT22;28397;44.552;-0.848;2023-04-01T07:14:24;12.60;99.90
42743;DHT22;28397;44.552;-0.848;2023-04-01T07:19:45;12.80;99.90
42743;DHT22;28397;44.552;-0.848;2023-04-01T07:24:51;12.90;99.90
42743;DHT22;28397;44.552;-0.848;2023-04-01T07:27:18;12.90;99.90
42743;DHT22;28397;44.552;-0.848;2023-04-01T07:29:44;12.80;99.90
42743;DHT22;28397;44.552;-0.848;2023-04-01T07:48:56;13.10;99.90
42743;DHT22;28397;44.552;-0.848;2023-04-01T07:51:27;13.20;99.90
42743;DHT22;28397;44.552;-0.848;2023-04-01T07:56:30;13.30;99.90
42743;DHT22;28397;44.552;-0.848;2023-04-01T08:04:46;13.50;99.90
42743;DHT22;28397;44.552;-0.848;2023-04-01T08:07:21;13.60;99.90
42743;DHT22;28397;44.552;-0.848;2023-04-01T08:21:20;13.40;99.90
42743;DHT22;28397;44.552;-0.848;2023-04-01T08:23:32;13.40;99.90
42743;DHT22;28397;44.552;-0.848;2023-04-01T08:29:00;13.30;99.90
42743;DHT22;28397;44.552;-0.848;2023-04-01T08:34:00;13.30;99.90
42743;DHT22;28397;44.552;-0.848;2023-04-01T08:36:31;13.40;99.90
42743;DHT22;28397;44.552;-0.848;2023-04-01T08:39:06;13.30;99.90
42743;DHT22;28397;44.552;-0.848;2023-04-01T08:47:38;13.50;99.90
42743;DHT22;28397;44.552;-0.848;2023-04-01T08:55:30;13.50;99.90
42743;DHT22;28397;44.552;-0.848;2023-04-01T09:08:48;14.00;99.90
42743;DHT22;28397;44.552;-0.848;2023-04-01T09:21:56;14.10;99.90
42743;DHT22;28397;44.552;-0.848;2023-04-01T09:27:31;14.10;99.90
42743;DHT22;28397;44.552;-0.848;2023-04-01T09:36:02;14.10;99.90
42743;DHT22;28397;44.552;-0.848;2023-04-01T09:38:38;14.00;99.90
42743;DHT22;28397;44.552;-0.848;2023-04-01T09:44:11;14.20;99.90
42743;DHT22;28397;44.552;-0.848;2023-04-01T09:46:57;14.40;99.90
42743;DHT22;28397;44.552;-0.848;2023-04-01T09:52:15;14.10;99.90
42743;DHT22;28397;44.552;-0.848;2023-04-01T10:20:47;13.30;99.90
42743;DHT22;28397;44.552;-0.848;2023-04-01T10:48:30;14.80;99.90
42743;DHT22;28397;44.552;-0.848;2023-04-01T10:56:46;15.00;99.90
42743;DHT22;28397;44.552;-0.848;2023-04-01T11:13:59;14.30;99.90
42743;DHT22;28397;44.552;-0.848;2023-04-01T11:17:01;14.20;99.90
42743;DHT22;28397;44.552;-0.848;2023-04-01T11:30:31;12.50;99.90
42743;DHT22;28397;44.552;-0.848;2023-04-01T11:33:00;12.20;99.90
42743;DHT22;28397;44.552;-0.848;2023-04-01T12:09:03;12.60;99.90
42743;DHT22;28397;44.552;-0.848;2023-04-01T12:19:23;13.30;99.90
42743;DHT22;28397;44.552;-0.848;2023-04-01T12:22:17;13.30;99.90
42743;DHT22;28397;44.552;-0.848;2023-04-01T12:27:52;13.80;99.90
42743;DHT22;28397;44.552;-0.848;2023-04-01T12:55:40;14.00;99.90
42743;DHT22;28397;44.552;-0.848;2023-04-01T12:58:33;13.90;99.90
42743;DHT22;28397;44.552;-0.848;2023-04-01T13:04:37;13.70;99.90
42743;DHT22;28397;44.552;-0.848;2023-04-01T13:17:43;15.00;99.90
42743;DHT22;28397;44.552;-0.848;2023-04-01T13:29:20;14.90;99.90
42743;DHT22;28397;44.552;-0.848;2023-04-01T13:31:59;14.60;99.90
42743;DHT22;28397;44.552;-0.848;2023-04-01T13:40:43;15.20;99.90
42743;DHT22;28397;44.552;-0.848;2023-04-01T13:43:28;15.10;99.90
42743;DHT22;28397;44.552;-0.848;2023-04-01T13:46:06;14.90;99.90
42743;DHT22;28397;44.552;-0.848;2023-04-01T13:54:47;15.10;99.90
42743;DHT22;28397;44.552;-0.848;2023-04-01T14:03:26;15.80;99.90
42743;DHT22;28397;44.552;-0.848;2023-04-01T14:14:50;15.30;99.90
42743;DHT22;28397;44.552;-0.848;2023-04-01T14:17:26;15.80;99.90
42743;DHT22;28397;44.552;-0.848;2023-04-01T14:26:24;15.30;99.90
42743;DHT22;28397;44.552;-0.848;2023-04-01T14:50:51;16.30;99.90
42743;DHT22;28397;44.552;-0.848;2023-04-01T14:55:50;16.30;99.90
42743;DHT22;28397;44.552;-0.848;2023-04-01T14:58:18;15.70;99.90
42743;DHT22;28397;44.552;-0.848;2023-04-01T15:00:58;15.00;99.90
42743;DHT22;28397;44.552;-0.848;2023-04-01T15:12:40;14.60;99.90
42743;DHT22;28397;44.552;-0.848;2023-04-01T15:18:10;13.30;99.90
42743;DHT22;28397;44.552;-0.848;2023-04-01T15:29:11;14.20;99.90
42743;DHT22;28397;44.552;-0.848;2023-04-01T15:31:55;14.50;99.90
42743;DHT22;28397;44.552;-0.848;2023-04-01T15:34:35;14.50;99.90
42743;DHT22;28397;44.552;-0.848;2023-04-01T15:40:20;14.80;99.90
42743;DHT22;28397;44.552;-0.848;2023-04-01T15:43:46;14.20;99.90
42743;DHT22;28397;44.552;-0.848;2023-04-01T15:46:15;14.10;99.90
42743;DHT22;28397;44.552;-0.848;2023-04-01T16:10:35;15.70;99.90
42743;DHT22;28397;44.552;-0.848;2023-04-01T16:19:09;14.90;99.90
42743;DHT22;28397;44.552;-0.848;2023-04-01T16:21:50;14.50;99.90
42743;DHT22;28397;44.552;-0.848;2023-04-01T16:24:51;14.00;99.90
42743;DHT22;28397;44.552;-0.848;2023-04-01T16:30:00;13.90;99.90
42743;DHT22;28397;44.552;-0.848;2023-04-01T16:37:53;15.10;99.90
42743;DHT22;28397;44.552;-0.848;2023-04-01T16:46:27;13.60;99.90
42743;DHT22;28397;44.552;-0.848;2023-04-01T16:52:00;13.70;99.90
42743;DHT22;28397;44.552;-0.848;2023-04-01T16:54:46;14.70;99.90
42743;DHT22;28397;44.552;-0.848;2023-04-01T17:00:15;14.90;99.90
42743;DHT22;28397;44.552;-0.848;2023-04-01T17:03:03;15.20;99.90
42743;DHT22;28397;44.552;-0.848;2023-04-01T17:11:21;14.70;99.90
42743;DHT22;28397;44.552;-0.848;2023-04-01T17:14:10;14.60;99.90
42743;DHT22;28397;44.552;-0.848;2023-04-01T17:22:44;14.40;99.90
42743;DHT22;28397;44.552;-0.848;2023-04-01T17:28:14;14.10;99.90
42743;DHT22;28397;44.552;-0.848;2023-04-01T17:33:41;15.20;99.90
42743;DHT22;28397;44.552;-0.848;2023-04-01T17:39:30;14.20;99.90
42743;DHT22;28397;44.552;-0.848;2023-04-01T17:45:36;13.20;99.90
42743;DHT22;28397;44.552;-0.848;2023-04-01T17:47:52;13.10;99.90
42743;DHT22;28397;44.552;-0.848;2023-04-01T17:50:44;12.90;99.90
42743;DHT22;28397;44.552;-0.848;2023-04-01T17:56:12;12.90;99.90
42743;DHT22;28397;44.552;-0.848;2023-04-01T17:59:48;12.90;99.90
42743;DHT22;28397;44.552;-0.848;2023-04-01T18:10:49;12.60;99.90
42743;DHT22;28397;44.552;-0.848;2023-04-01T18:16:43;12.50;99.90
42743;DHT22;28397;44.552;-0.848;2023-04-01T18:22:38;12.60;99.90
42743;DHT22;28397;44.552;-0.848;2023-04-01T18:25:12;12.50;99.90
42743;DHT22;28397;44.552;-0.848;2023-04-01T18:27:43;12.50;99.90
42743;DHT22;28397;44.552;-0.848;2023-04-01T18:30:35;12.60;99.90
42743;DHT22;28397;44.552;-0.848;2023-04-01T18:33:29;12.60;99.90
42743;DHT22;28397;44.552;-0.848;2023-04-01T18:39:22;11.30;99.90
42743;DHT22;28397;44.552;-0.848;2023-04-01T18:42:06;11.00;99.90
42743;DHT22;28397;44.552;-0.848;2023-04-01T18:44:50;11.20;99.90
42743;DHT22;28397;44.552;-0.848;2023-04-01T18:52:40;10.80;99.90
42743;DHT22;28397;44.552;-0.848;2023-04-01T18:58:33;10.80;99.90
42743;DHT22;28397;44.552;-0.848;2023-04-01T19:06:41;10.60;99.90
42743;DHT22;28397;44.552;-0.848;2023-04-01T19:09:44;10.50;99.90
42743;DHT22;28397;44.552;-0.848;2023-04-01T19:17:43;10.80;99.90
42743;DHT22;28397;44.552;-0.848;2023-04-01T19:20:17;10.90;99.90
42743;DHT22;28397;44.552;-0.848;2023-04-01T19:26:11;11.10;99.90
42743;DHT22;28397;44.552;-0.848;2023-04-01T19:37:09;10.90;99.90
42743;DHT22;28397;44.552;-0.848;2023-04-01T19:40:03;10.80;99.90
42743;DHT22;28397;44.552;-0.848;2023-04-01T19:51:09;10.90;99.90
42743;DHT22;28397;44.552;-0.848;2023-04-01T19:56:22;11.10;99.90
42743;DHT22;28397;44.552;-0.848;2023-04-01T20:04:51;11.20;99.90
42743;DHT22;28397;44.552;-0.848;2023-04-01T20:07:43;11.10;99.90
42743;DHT22;28397;44.552;-0.848;2023-04-01T20:10:17;10.90;99.90
42743;DHT22;28397;44.552;-0.848;2023-04-01T20:12:51;10.90;99.90
42743;DHT22;28397;44.552;-0.848;2023-04-01T20:15:39;10.80;99.90
42743;DHT22;28397;44.552;-0.848;2023-04-01T20:18:15;10.90;99.90
42743;DHT22;28397;44.552;-0.848;2023-04-01T20:20:59;10.90;99.90
42743;DHT22;28397;44.552;-0.848;2023-04-01T20:23:59;10.90;99.90
42743;DHT22;28397;44.552;-0.848;2023-04-01T20:26:37;11.00;99.90
42743;DHT22;28397;44.552;-0.848;2023-04-01T20:34:57;11.10;99.90
42743;DHT22;28397;44.552;-0.848;2023-04-01T20:40:38;11.10;99.90
42743;DHT22;28397;44.552;-0.848;2023-04-01T20:43:47;11.20;99.90
42743;DHT22;28397;44.552;-0.848;2023-04-01T20:46:28;11.20;99.90
42743;DHT22;28397;44.552;-0.848;2023-04-01T20:49:33;11.20;99.90
42743;DHT22;28397;44.552;-0.848;2023-04-01T21:02:53;11.20;99.90
42743;DHT22;28397;44.552;-0.848;2023-04-01T21:08:17;11.30;99.90
42743;DHT22;28397;44.552;-0.848;2023-04-01T21:22:40;11.50;99.90
42743;DHT22;28397;44.552;-0.848;2023-04-01T21:28:19;11.50;99.90
42743;DHT22;28397;44.552;-0.848;2023-04-01T21:33:49;11.40;99.90
42743;DHT22;28397;44.552;-0.848;2023-04-01T21:36:39;11.50;99.90
42743;DHT22;28397;44.552;-0.848;2023-04-01T21:42:11;11.50;99.90
42743;DHT22;28397;44.552;-0.848;2023-04-01T21:44:55;11.40;99.90
42743;DHT22;28397;44.552;-0.848;2023-04-01T22:04:13;11.50;99.90
42743;DHT22;28397;44.552;-0.848;2023-04-01T22:06:51;11.50;99.90
42743;DHT22;28397;44.552;-0.848;2023-04-01T22:09:37;11.60;99.90
42743;DHT22;28397;44.552;-0.848;2023-04-01T22:12:25;11.60;99.90
42743;DHT22;28397;44.552;-0.848;2023-04-01T22:15:23;11.60;99.90
42743;DHT22;28397;44.552;-0.848;2023-04-01T22:18:06;11.50;99.90
42743;DHT22;28397;44.552;-0.848;2023-04-01T22:21:24;11.60;99.90
42743;DHT22;28397;44.552;-0.848;2023-04-01T22:24:09;11.60;99.90
42743;DHT22;28397;44.552;-0.848;2023-04-01T22:26:47;11.60;99.90
42743;DHT22;28397;44.552;-0.848;2023-04-01T22:29:35;11.70;99.90
42743;DHT22;28397;44.552;-0.848;2023-04-01T22:34:47;11.70;99.90
42743;DHT22;28397;44.552;-0.848;2023-04-01T22:43:00;11.60;99.90
42743;DHT22;28397;44.552;-0.848;2023-04-01T22:56:40;11.70;99.90
42743;DHT22;28397;44.552;-0.848;2023-04-01T22:59:19;11.60;99.90
42743;DHT22;28397;44.552;-0.848;2023-04-01T23:01:51;11.70;99.90
42743;DHT22;28397;44.552;-0.848;2023-04-01T23:04:23;11.70;99.90
42743;DHT22;28397;44.552;-0.848;2023-04-01T23:06:54;11.70;99.90
42743;DHT22;28397;44.552;-0.848;2023-04-01T23:09:29;11.70;99.90
42743;DHT22;28397;44.552;-0.848;2023-04-01T23:12:03;11.70;99.90
42743;DHT22;28397;44.552;-0.848;2023-04-01T23:14:32;11.70;99.90
42743;DHT22;28397;44.552;-0.848;2023-04-01T23:30:54;11.50;99.90
42743;DHT22;28397;44.552;-0.848;2023-04-01T23:33:29;11.60;99.90
42743;DHT22;28397;44.552;-0.848;2023-04-01T23:36:00;11.50;99.90
42743;DHT22;28397;44.552;-0.848;2023-04-01T23:38:36;11.60;99.90
42743;DHT22;28397;44.552;-0.848;2023-04-01T23:41:03;11.50;99.90
42743;DHT22;28397;44.552;-0.848;2023-04-01T23:43:32;11.60;99.90
42743;DHT22;28397;44.552;-0.848;2023-04-01T23:46:03;11.60;99.90
42743;DHT22;28397;44.552;-0.848;2023-04-01T23:48:42;11.60;99.90
42743;DHT22;28397;44.552;-0.848;2023-04-01T23:51:21;11.60;99.90
42743;DHT22;28397;44.552;-0.848;2023-04-01T23:54:01;11.60;99.90
42743;DHT22;28397;44.552;-0.848;2023-04-01T23:56:37;11.60;99.90
42743;DHT22;28397;44.552;-0.848;2023-04-01T23:59:03;11.70;99.90
